Terminal Aerodrome Forecast
Issued by NWS Lubbock, TX

Home | Current Version | Previous Version | Text Only | Print | Product List | Glossary On
Versions: 1 2 3 4 5 6 7 8 9 10 11 12 13 14 15
000
FTUS44 KLUB 261100
TAFLBB
TAF
KLBB 261120Z 2612/2712 20010KT P6SM FEW180
     FM261800 24016G22KT P6SM SCT100 SCT250
     FM270000 36011KT P6SM SCT025 BKN060 BKN180=

USA.gov is the U.S. government's official web portal to all federal, state and local government web resources and services.